Time;durP1;ratioP1;P1;durP2;ratioP2;P2;SDS_P1;SDS_P2;PMS_P1;PMS_P2;Temp;Humidity;BMP_temperature;BMP_pressure;BME280_temperature;BME280_humidity;BME280_pressure;Samples;Min_cycle;Max_cycle;Signal;HPM_P1;HPM_P2
2021/04/28 00:00:08;;;;;;;8.63;5.88;;;9.10;49.90;;;;;;5032201;28;20389;-59
2021/04/28 00:02:35;;;;;;;8.48;5.63;;;9.10;50.20;;;;;;5032059;28;20096;-62
2021/04/28 00:05:06;;;;;;;7.68;5.72;;;9.10;50.10;;;;;;5032130;28;20029;-62
2021/04/28 00:07:32;;;;;;;8.98;6.10;;;9.10;50.10;;;;;;5031871;28;20040;-62
2021/04/28 00:09:58;;;;;;;9.85;5.25;;;9.10;50.10;;;;;;5032456;28;20522;-63
2021/04/28 00:12:23;;;;;;;9.00;5.93;;;9.10;50.20;;;;;;5031644;28;20033;-61
2021/04/28 00:14:49;;;;;;;6.82;5.40;;;9.10;50.20;;;;;;5035129;28;20044;-62
2021/04/28 00:17:14;;;;;;;8.43;5.80;;;9.20;50.30;;;;;;5032093;28;20116;-60
2021/04/28 00:19:40;;;;;;;8.48;5.43;;;9.10;50.40;;;;;;5030433;28;20037;-63
2021/04/28 00:22:06;;;;;;;8.18;5.20;;;9.20;50.40;;;;;;5032076;28;20033;-62
2021/04/28 00:24:31;;;;;;;7.88;5.93;;;9.10;50.40;;;;;;5033226;28;20044;-64
2021/04/28 00:26:57;;;;;;;7.03;5.53;;;9.10;50.40;;;;;;5031532;28;20568;-59
2021/04/28 00:29:22;;;;;;;8.85;5.50;;;9.10;50.50;;;;;;5031043;28;20036;-62
2021/04/28 00:31:48;;;;;;;9.32;5.65;;;9.10;50.50;;;;;;5011624;28;20041;-62
2021/04/28 00:34:16;;;;;;;7.95;5.22;;;9.10;51.00;;;;;;5033334;28;20104;-63
2021/04/28 00:36:42;;;;;;;8.30;5.85;;;9.10;50.80;;;;;;5029734;28;20038;-63
2021/04/28 00:39:07;;;;;;;8.80;5.63;;;9.10;50.90;;;;;;5031604;28;20033;-61
2021/04/28 00:41:33;;;;;;;7.75;5.57;;;9.10;51.00;;;;;;5030793;28;20068;-60
2021/04/28 00:44:00;;;;;;;9.52;5.88;;;9.10;51.00;;;;;;5031492;28;20060;-60
2021/04/28 00:46:26;;;;;;;8.55;5.72;;;9.10;51.00;;;;;;5031079;28;20041;-62
2021/04/28 00:48:52;;;;;;;10.15;5.68;;;9.10;51.00;;;;;;5018650;28;20033;-63
2021/04/28 00:51:18;;;;;;;7.70;5.55;;;9.00;51.10;;;;;;5032340;28;20156;-62
2021/04/28 00:53:45;;;;;;;7.80;5.47;;;9.00;51.20;;;;;;5030738;28;20045;-61
2021/04/28 00:56:10;;;;;;;10.32;5.82;;;9.00;51.40;;;;;;5036229;28;20041;-63
2021/04/28 00:58:36;;;;;;;8.48;5.93;;;9.00;51.30;;;;;;5030314;28;20034;-63
2021/04/28 01:01:03;;;;;;;7.60;5.70;;;9.10;51.20;;;;;;5032916;28;20037;-63
2021/04/28 01:03:30;;;;;;;8.07;5.70;;;9.00;51.50;;;;;;5029448;28;20057;-62
2021/04/28 01:05:59;;;;;;;7.13;5.40;;;8.90;51.90;;;;;;5031926;28;20026;-62
2021/04/28 01:08:25;;;;;;;9.43;6.03;;;8.80;52.00;;;;;;5045525;28;20500;-63
2021/04/28 01:10:52;;;;;;;7.95;5.32;;;8.80;52.00;;;;;;5031445;28;20045;-62
2021/04/28 01:13:18;;;;;;;8.18;6.13;;;8.80;52.00;;;;;;5030458;28;20033;-61
2021/04/28 01:15:46;;;;;;;7.45;5.65;;;8.70;52.10;;;;;;5030695;28;20029;-59
2021/04/28 01:18:12;;;;;;;8.93;6.40;;;8.80;52.10;;;;;;5030129;28;20037;-62
2021/04/28 01:20:39;;;;;;;8.32;5.85;;;8.80;52.20;;;;;;5032516;28;20025;-62
2021/04/28 01:23:06;;;;;;;8.20;5.93;;;8.80;52.10;;;;;;5035417;28;20048;-64
2021/04/28 01:25:33;;;;;;;10.32;6.38;;;8.70;52.20;;;;;;5030030;28;20400;-62
2021/04/28 01:28:04;;;;;;;8.20;5.85;;;8.60;52.40;;;;;;5029929;28;20037;-63
2021/04/28 01:30:58;;;;;;;8.27;5.88;;;8.70;52.50;;;;;;5028067;28;20389;-60
2021/04/28 01:33:45;;;;;;;9.70;5.70;;;8.70;52.40;;;;;;5023997;28;20157;-62
2021/04/28 01:36:16;;;;;;;10.68;6.28;;;8.60;52.50;;;;;;5030543;28;20462;-63
2021/04/28 01:38:44;;;;;;;8.23;5.80;;;8.60;52.60;;;;;;5029446;28;20047;-62
2021/04/28 01:41:10;;;;;;;8.93;6.55;;;8.60;52.60;;;;;;5028959;28;20033;-62
2021/04/28 01:43:36;;;;;;;9.27;6.22;;;8.60;52.80;;;;;;5029955;28;20030;-63
2021/04/28 01:46:03;;;;;;;7.45;6.25;;;8.50;53.10;;;;;;5028812;28;20039;-62
2021/04/28 01:48:30;;;;;;;8.43;5.85;;;8.50;53.20;;;;;;5018493;28;20459;-60
2021/04/28 01:50:58;;;;;;;8.30;6.05;;;8.40;53.30;;;;;;5018601;28;20552;-63
2021/04/28 01:53:25;;;;;;;9.98;6.40;;;8.40;53.30;;;;;;5021189;28;20095;-61
2021/04/28 01:55:53;;;;;;;11.10;6.75;;;8.30;53.60;;;;;;5020646;28;20041;-62
2021/04/28 01:58:19;;;;;;;8.32;6.28;;;8.20;53.80;;;;;;5011122;28;20053;-62
2021/04/28 02:00:45;;;;;;;10.52;6.40;;;8.20;53.90;;;;;;5029452;28;20035;-62
2021/04/28 02:03:12;;;;;;;8.32;6.20;;;8.20;54.00;;;;;;5018103;28;20034;-63
2021/04/28 02:05:40;;;;;;;15.90;10.45;;;8.10;54.10;;;;;;5033095;28;20021;-62
2021/04/28 02:08:06;;;;;;;12.55;7.32;;;8.10;54.30;;;;;;5016248;28;20033;-62
2021/04/28 02:10:33;;;;;;;7.90;6.13;;;8.10;54.40;;;;;;5015273;28;20033;-62
2021/04/28 02:12:59;;;;;;;8.63;5.93;;;8.10;54.50;;;;;;5012376;28;20030;-63
2021/04/28 02:15:26;;;;;;;8.00;6.63;;;8.00;54.70;;;;;;5019019;28;20037;-63
2021/04/28 02:17:54;;;;;;;8.07;6.47;;;8.10;54.70;;;;;;5014678;28;20581;-61
2021/04/28 02:20:20;;;;;;;10.80;6.93;;;8.00;54.90;;;;;;5011178;28;20036;-61
2021/04/28 02:22:46;;;;;;;8.45;6.60;;;7.90;55.00;;;;;;5021887;28;20649;-61
2021/04/28 02:25:13;;;;;;;8.23;6.57;;;8.00;55.00;;;;;;5025791;28;20625;-61
2021/04/28 02:27:39;;;;;;;7.85;6.68;;;7.90;55.00;;;;;;5027475;28;20579;-63
2021/04/28 02:30:11;;;;;;;10.38;6.75;;;7.80;55.10;;;;;;5012001;28;20397;-63
2021/04/28 02:32:37;;;;;;;8.85;6.10;;;7.80;55.60;;;;;;5022345;28;20116;-61
2021/04/28 02:35:05;;;;;;;10.25;6.60;;;7.70;55.80;;;;;;5010964;28;20018;-60
2021/04/28 02:37:31;;;;;;;8.85;6.50;;;7.70;55.90;;;;;;5030737;28;20048;-62
2021/04/28 02:40:09;;;;;;;9.32;6.55;;;7.70;55.90;;;;;;5014606;28;20034;-61
2021/04/28 02:42:35;;;;;;;8.77;6.03;;;7.70;56.00;;;;;;5024702;28;20057;-63
2021/04/28 02:45:03;;;;;;;13.00;6.38;;;7.70;56.00;;;;;;5010731;28;20033;-62
2021/04/28 02:47:30;;;;;;;8.95;6.40;;;7.70;56.00;;;;;;5018306;28;20034;-60
2021/04/28 02:49:56;;;;;;;9.88;6.55;;;7.70;56.00;;;;;;5010753;28;20117;-61
2021/04/28 02:52:23;;;;;;;8.02;6.25;;;7.70;55.90;;;;;;5025091;28;20046;-62
2021/04/28 02:54:49;;;;;;;9.93;6.85;;;7.70;55.80;;;;;;5021854;28;20029;-60
2021/04/28 02:57:16;;;;;;;14.82;6.95;;;7.80;56.00;;;;;;5027420;28;20076;-62
2021/04/28 02:59:42;;;;;;;11.40;7.30;;;7.70;56.70;;;;;;5021255;28;20045;-61
2021/04/28 03:02:08;;;;;;;11.25;6.78;;;7.70;56.00;;;;;;5026581;28;20078;-62
2021/04/28 03:04:40;;;;;;;10.35;7.47;;;7.80;56.00;;;;;;5020250;28;20037;-62
2021/04/28 03:07:06;;;;;;;9.93;6.97;;;7.70;56.00;;;;;;5033524;28;20030;-63
2021/04/28 03:09:33;;;;;;;10.20;6.38;;;7.60;56.40;;;;;;5019832;28;20034;-62
2021/04/28 03:12:00;;;;;;;8.65;6.53;;;7.60;56.60;;;;;;5032926;28;20112;-62
2021/04/28 03:14:25;;;;;;;10.23;6.80;;;7.50;56.80;;;;;;5016578;28;20034;-63
2021/04/28 03:16:51;;;;;;;9.52;6.60;;;7.50;56.70;;;;;;5023095;28;20467;-61
2021/04/28 03:19:17;;;;;;;9.93;6.60;;;7.60;56.60;;;;;;5019934;28;20037;-62
2021/04/28 03:21:47;;;;;;;7.30;6.47;;;7.70;56.50;;;;;;5019179;28;20030;-63
2021/04/28 03:24:13;;;;;;;9.85;6.68;;;7.70;56.40;;;;;;5023295;28;20359;-63
2021/04/28 03:26:40;;;;;;;10.35;7.22;;;7.60;56.40;;;;;;5032427;28;20029;-57
2021/04/28 03:29:07;;;;;;;10.02;7.38;;;7.70;56.30;;;;;;5021696;28;20512;-63
2021/04/28 03:31:33;;;;;;;9.70;6.18;;;7.60;56.60;;;;;;5014176;28;20068;-62
2021/04/28 03:33:59;;;;;;;12.63;7.88;;;7.60;56.70;;;;;;5029888;28;20077;-60
2021/04/28 03:36:25;;;;;;;8.77;6.50;;;7.60;56.60;;;;;;5013591;28;20142;-61
2021/04/28 03:38:50;;;;;;;10.45;7.10;;;7.60;56.50;;;;;;5027800;28;20439;-63
2021/04/28 03:41:16;;;;;;;9.48;7.40;;;7.60;56.60;;;;;;5013496;28;20181;-63
2021/04/28 03:43:42;;;;;;;10.75;7.18;;;7.40;56.90;;;;;;5026738;28;20033;-62
2021/04/28 03:46:09;;;;;;;11.68;7.55;;;7.50;57.00;;;;;;5013385;28;20048;-61
2021/04/28 03:48:35;;;;;;;11.02;7.68;;;7.40;57.10;;;;;;5038692;28;20033;-63
2021/04/28 03:51:01;;;;;;;14.27;8.35;;;7.40;57.20;;;;;;5012100;28;20048;-62
2021/04/28 03:53:26;;;;;;;12.75;8.35;;;7.30;57.40;;;;;;5027456;28;20159;-61
2021/04/28 03:55:52;;;;;;;12.23;8.82;;;7.30;57.70;;;;;;5013278;28;20058;-62
2021/04/28 03:58:17;;;;;;;9.48;7.30;;;7.30;57.60;;;;;;5034711;28;20025;-62
2021/04/28 04:00:43;;;;;;;10.18;7.50;;;7.30;57.80;;;;;;5015135;28;20033;-62
2021/04/28 04:03:08;;;;;;;12.07;8.00;;;7.30;57.70;;;;;;5031440;28;20036;-61
2021/04/28 04:05:34;;;;;;;11.63;7.13;;;7.40;57.60;;;;;;5020795;28;20754;-62
2021/04/28 04:08:00;;;;;;;12.38;8.15;;;7.40;57.50;;;;;;5026039;28;20052;-61
2021/04/28 04:10:26;;;;;;;10.65;6.70;;;7.40;57.50;;;;;;5025348;28;20489;-64
2021/04/28 04:12:51;;;;;;;10.30;7.20;;;7.50;57.40;;;;;;5019034;28;20041;-64
2021/04/28 04:15:17;;;;;;;10.40;7.13;;;7.50;57.30;;;;;;5021371;28;20045;-61
2021/04/28 04:17:42;;;;;;;12.35;7.65;;;7.50;57.30;;;;;;5016520;28;20080;-62
2021/04/28 04:20:08;;;;;;;11.23;7.70;;;7.50;57.10;;;;;;5023168;28;20061;-59
2021/04/28 04:22:34;;;;;;;10.10;6.90;;;7.40;57.60;;;;;;5015333;28;20060;-62
2021/04/28 04:25:00;;;;;;;11.32;7.32;;;7.40;57.80;;;;;;5043820;28;20057;-62
2021/04/28 04:27:26;;;;;;;14.68;8.18;;;7.50;57.70;;;;;;5030028;28;20485;-63
2021/04/28 04:29:51;;;;;;;12.20;7.55;;;7.50;57.80;;;;;;5027751;28;20041;-61
2021/04/28 04:32:17;;;;;;;14.35;9.05;;;7.50;57.60;;;;;;5012608;28;20096;-61
2021/04/28 04:34:43;;;;;;;15.63;8.23;;;7.50;57.50;;;;;;5013175;28;20034;-62
2021/04/28 04:37:09;;;;;;;11.38;7.00;;;7.50;57.50;;;;;;5018076;28;20044;-63
2021/04/28 04:39:35;;;;;;;11.20;7.38;;;7.60;57.50;;;;;;5031997;28;20042;-62
2021/04/28 04:42:00;;;;;;;11.95;8.15;;;7.60;57.50;;;;;;5014579;28;20017;-60
2021/04/28 04:44:26;;;;;;;13.00;8.00;;;7.70;57.40;;;;;;5021325;28;20092;-62
2021/04/28 04:46:51;;;;;;;11.25;8.23;;;7.70;57.40;;;;;;5012242;28;20038;-63
2021/04/28 04:49:17;;;;;;;12.13;7.70;;;7.70;57.20;;;;;;5021079;28;20057;-60
2021/04/28 04:51:43;;;;;;;13.57;7.97;;;7.80;57.10;;;;;;5012305;28;20505;-64
2021/04/28 04:54:08;;;;;;;13.23;7.80;;;7.80;57.10;;;;;;5021737;28;20036;-61
2021/04/28 04:56:34;;;;;;;14.00;7.60;;;7.90;56.90;;;;;;5011352;28;20046;-62
2021/04/28 04:59:00;;;;;;;12.43;7.72;;;7.90;56.70;;;;;;5016642;28;20030;-61
2021/04/28 05:01:26;;;;;;;13.25;7.82;;;7.90;56.80;;;;;;5031488;28;20497;-63
2021/04/28 05:03:54;;;;;;;13.73;8.40;;;7.90;56.80;;;;;;5022032;28;20045;-59
2021/04/28 05:06:22;;;;;;;13.45;8.13;;;7.80;57.10;;;;;;5035854;28;20056;-64
2021/04/28 05:08:47;;;;;;;11.45;7.93;;;7.80;57.00;;;;;;5022874;28;20053;-61
2021/04/28 05:11:13;;;;;;;13.35;8.40;;;7.90;57.00;;;;;;5027013;28;20075;-59
2021/04/28 05:13:39;;;;;;;12.15;7.60;;;8.00;56.90;;;;;;5027263;28;20430;-63
2021/04/28 05:16:04;;;;;;;9.85;7.85;;;8.00;56.90;;;;;;5027916;28;20038;-62
2021/04/28 05:18:30;;;;;;;15.65;9.77;;;8.00;56.70;;;;;;5029112;28;20038;-64
2021/04/28 05:20:56;;;;;;;13.40;8.15;;;7.90;56.90;;;;;;5026650;28;20172;-64
2021/04/28 05:23:21;;;;;;;11.82;8.48;;;7.90;57.00;;;;;;5027018;28;20041;-63
2021/04/28 05:25:47;;;;;;;16.02;9.48;;;8.00;57.00;;;;;;5025785;28;20045;-62
2021/04/28 05:28:12;;;;;;;19.77;9.43;;;8.00;57.60;;;;;;5024986;28;20539;-62
2021/04/28 05:30:38;;;;;;;15.27;8.65;;;8.10;56.80;;;;;;5022081;28;20037;-62
2021/04/28 05:33:05;;;;;;;10.68;8.35;;;8.10;56.80;;;;;;5021835;28;20489;-64
2021/04/28 05:35:30;;;;;;;12.23;8.35;;;8.20;57.40;;;;;;5024190;28;20387;-62
2021/04/28 05:37:56;;;;;;;17.23;8.18;;;8.20;56.60;;;;;;5034229;28;20025;-61
2021/04/28 05:40:23;;;;;;;13.80;8.57;;;8.30;56.70;;;;;;5018451;28;20041;-63
2021/04/28 05:42:49;;;;;;;16.02;8.90;;;8.20;56.80;;;;;;5030378;28;20046;-61
2021/04/28 05:45:15;;;;;;;14.35;10.82;;;8.20;56.80;;;;;;5027270;28;20029;-63
2021/04/28 05:47:41;;;;;;;12.30;8.75;;;8.30;56.80;;;;;;5023565;28;20049;-62
2021/04/28 05:50:10;;;;;;;11.38;8.50;;;8.40;56.80;;;;;;5012211;28;20096;-63
2021/04/28 05:52:36;;;;;;;10.55;8.68;;;8.40;56.60;;;;;;5036032;28;20045;-63
2021/04/28 05:55:04;;;;;;;14.38;9.45;;;8.40;57.30;;;;;;5025136;28;20034;-62
2021/04/28 05:57:31;;;;;;;10.82;8.27;;;8.50;56.60;;;;;;5040489;28;20046;-63
2021/04/28 05:59:57;;;;;;;10.05;8.38;;;8.60;56.70;;;;;;5019201;28;20033;-62
2021/04/28 06:02:22;;;;;;;13.27;8.65;;;8.60;56.50;;;;;;5035182;28;20034;-62
2021/04/28 06:04:48;;;;;;;12.38;8.82;;;8.80;56.30;;;;;;5011335;28;20078;-64
2021/04/28 06:07:14;;;;;;;11.30;8.60;;;8.80;56.20;;;;;;5035732;28;20110;-64
2021/04/28 06:09:39;;;;;;;28.83;11.85;;;8.80;56.10;;;;;;5012075;28;20109;-63
2021/04/28 06:12:05;;;;;;;17.30;9.75;;;8.80;56.30;;;;;;5031878;28;20095;-61
2021/04/28 06:14:31;;;;;;;23.08;10.30;;;8.80;56.20;;;;;;5035295;28;20451;-62
2021/04/28 06:16:58;;;;;;;16.70;10.15;;;8.90;56.10;;;;;;5041837;28;20618;-63
2021/04/28 06:19:23;;;;;;;19.58;9.32;;;9.00;56.10;;;;;;5019097;28;20366;-63
2021/04/28 06:21:49;;;;;;;13.18;8.73;;;9.00;56.00;;;;;;5037793;28;20044;-62
2021/04/28 06:24:14;;;;;;;14.27;9.60;;;9.00;56.10;;;;;;5021465;28;20034;-62
2021/04/28 06:26:43;;;;;;;14.65;9.27;;;9.00;56.00;;;;;;5025804;28;20041;-63
2021/04/28 06:29:10;;;;;;;15.05;8.77;;;9.00;56.00;;;;;;5030751;28;20033;-63
2021/04/28 06:31:35;;;;;;;13.30;9.50;;;9.10;55.90;;;;;;5030479;28;20351;-62
2021/04/28 06:34:01;;;;;;;22.63;9.40;;;9.20;55.70;;;;;;5030150;28;20034;-62
2021/04/28 06:36:27;;;;;;;24.85;12.00;;;9.40;55.90;;;;;;5034167;28;20052;-62
2021/04/28 06:38:53;;;;;;;41.00;11.57;;;9.40;55.50;;;;;;5033351;28;20038;-63
2021/04/28 06:41:18;;;;;;;17.17;10.57;;;9.60;55.50;;;;;;5035810;28;20083;-62
2021/04/28 06:43:44;;;;;;;16.60;10.05;;;9.70;55.30;;;;;;5033884;28;20033;-63
2021/04/28 06:46:09;;;;;;;15.02;10.00;;;9.70;55.30;;;;;;5032516;28;20500;-63
2021/04/28 06:48:35;;;;;;;15.23;10.68;;;9.70;55.50;;;;;;5032524;28;20044;-62
2021/04/28 06:51:00;;;;;;;14.07;10.15;;;9.80;55.60;;;;;;5035036;28;20451;-60
2021/04/28 06:53:26;;;;;;;16.05;9.88;;;9.80;55.70;;;;;;5036405;28;20120;-63
2021/04/28 06:55:52;;;;;;;14.45;9.57;;;9.70;56.10;;;;;;5036294;28;20037;-64
2021/04/28 06:58:17;;;;;;;16.33;10.10;;;9.70;56.40;;;;;;5036233;28;20112;-63
2021/04/28 07:00:43;;;;;;;13.90;9.63;;;9.80;56.60;;;;;;5038684;28;20370;-64
2021/04/28 07:03:09;;;;;;;11.35;8.85;;;10.00;56.40;;;;;;5037977;28;20120;-63
2021/04/28 07:05:35;;;;;;;13.95;10.55;;;10.20;56.70;;;;;;5033739;28;20152;-62
2021/04/28 07:08:00;;;;;;;15.25;11.00;;;10.30;56.10;;;;;;5033751;28;20052;-63
2021/04/28 07:10:26;;;;;;;20.20;10.82;;;10.40;55.90;;;;;;5033162;28;20057;-61
2021/04/28 07:12:52;;;;;;;13.85;10.48;;;10.40;55.80;;;;;;5033371;28;20037;-63
2021/04/28 07:15:19;;;;;;;14.30;10.25;;;10.50;55.80;;;;;;5037494;28;20095;-63
2021/04/28 07:17:48;;;;;;;14.98;10.73;;;10.50;56.10;;;;;;5033040;28;20033;-63
2021/04/28 07:20:15;;;;;;;16.02;10.45;;;10.70;57.20;;;;;;5033178;28;20096;-63
2021/04/28 07:22:41;;;;;;;14.23;10.18;;;10.80;56.00;;;;;;5028710;28;20023;-63
2021/04/28 07:25:08;;;;;;;17.05;10.68;;;10.90;55.40;;;;;;5031676;28;20041;-62
2021/04/28 07:27:34;;;;;;;15.07;11.15;;;11.00;55.20;;;;;;5034837;28;20384;-63
2021/04/28 07:30:00;;;;;;;16.05;11.50;;;11.10;55.30;;;;;;5043992;28;20041;-63
2021/04/28 07:32:25;;;;;;;15.27;11.20;;;11.20;55.40;;;;;;5024724;28;20084;-63
2021/04/28 07:34:51;;;;;;;18.73;11.85;;;11.30;55.30;;;;;;5030779;28;20041;-63
2021/04/28 07:37:16;;;;;;;15.98;11.25;;;11.40;55.50;;;;;;5022055;28;20112;-63
2021/04/28 07:39:42;;;;;;;17.15;12.23;;;11.40;55.20;;;;;;5034036;28;20040;-63
2021/04/28 07:42:08;;;;;;;17.17;11.85;;;11.50;55.50;;;;;;5016910;28;20037;-63
2021/04/28 07:44:33;;;;;;;21.25;12.90;;;11.70;55.30;;;;;;5032516;28;20045;-63
2021/04/28 07:47:00;;;;;;;14.95;11.07;;;11.80;55.20;;;;;;5021208;28;20096;-63
2021/04/28 07:49:26;;;;;;;19.25;13.13;;;11.90;55.00;;;;;;5028196;28;20033;-62
2021/04/28 07:51:52;;;;;;;15.10;10.57;;;11.90;54.60;;;;;;5026770;28;20034;-62
2021/04/28 07:54:19;;;;;;;17.63;12.52;;;12.00;54.50;;;;;;5039504;28;20033;-64
2021/04/28 07:56:44;;;;;;;15.05;11.55;;;12.00;55.00;;;;;;5031201;28;20056;-63
2021/04/28 07:59:11;;;;;;;16.85;12.75;;;12.00;55.00;;;;;;5024570;28;20032;-63
2021/04/28 08:01:37;;;;;;;20.23;12.70;;;12.10;55.00;;;;;;5032844;28;20413;-64
2021/04/28 08:04:03;;;;;;;17.95;12.63;;;12.00;54.90;;;;;;5034782;28;20121;-63
2021/04/28 08:06:28;;;;;;;20.45;13.30;;;12.10;54.80;;;;;;5023130;28;20125;-63
2021/04/28 08:08:54;;;;;;;20.55;13.68;;;12.20;55.20;;;;;;5030044;28;20060;-62
2021/04/28 08:11:26;;;;;;;16.90;13.05;;;12.20;54.40;;;;;;5035387;28;20033;-69
2021/04/28 08:13:53;;;;;;;18.48;14.13;;;12.30;54.30;;;;;;5047874;28;20083;-60
2021/04/28 08:16:20;;;;;;;22.08;14.05;;;12.50;54.20;;;;;;5023068;28;20045;-63
2021/04/28 08:18:46;;;;;;;18.77;13.10;;;12.50;54.50;;;;;;5034425;28;20033;-64
2021/04/28 08:21:12;;;;;;;19.83;13.52;;;12.60;54.80;;;;;;5034862;28;20112;-63
2021/04/28 08:23:42;;;;;;;20.98;14.30;;;12.80;54.20;;;;;;5045439;28;20441;-63
2021/04/28 08:26:12;;;;;;;22.40;13.93;;;12.80;53.40;;;;;;5033743;28;20029;-64
2021/04/28 08:28:42;;;;;;;20.15;13.52;;;12.80;53.90;;;;;;5021120;28;20025;-63
2021/04/28 08:31:09;;;;;;;17.40;13.38;;;13.00;53.20;;;;;;5025187;28;20025;-63
2021/04/28 08:33:35;;;;;;;22.83;14.27;;;13.00;53.70;;;;;;5015261;28;20038;-62
2021/04/28 08:36:02;;;;;;;19.65;13.75;;;12.90;53.40;;;;;;5032949;28;20042;-62
2021/04/28 08:38:27;;;;;;;21.63;13.65;;;12.90;54.00;;;;;;5029953;28;20068;-63
2021/04/28 08:40:53;;;;;;;18.38;13.00;;;13.00;54.30;;;;;;5013781;28;20104;-64
2021/04/28 08:43:22;;;;;;;21.52;14.80;;;13.20;54.10;;;;;;5043135;28;20044;-63
2021/04/28 08:45:49;;;;;;;27.77;17.50;;;13.40;53.40;;;;;;5017443;28;20534;-62
2021/04/28 08:48:14;;;;;;;21.42;14.40;;;13.40;53.20;;;;;;5041832;28;20439;-63
2021/04/28 08:50:40;;;;;;;22.63;14.52;;;13.40;53.20;;;;;;5016041;28;20044;-64
2021/04/28 08:53:07;;;;;;;20.02;14.95;;;13.60;52.90;;;;;;5026208;28;20069;-61
2021/04/28 08:55:32;;;;;;;17.35;13.95;;;13.80;52.70;;;;;;5029917;28;20113;-62
2021/04/28 08:57:58;;;;;;;26.83;16.13;;;14.00;52.40;;;;;;5036877;28;20040;-62
2021/04/28 09:00:24;;;;;;;23.17;15.52;;;14.00;51.70;;;;;;5019240;28;20052;-63
2021/04/28 09:02:55;;;;;;;26.85;15.55;;;13.80;52.30;;;;;;5020138;28;20033;-63
2021/04/28 09:05:21;;;;;;;29.27;16.40;;;13.90;52.30;;;;;;5036592;28;20041;-65
2021/04/28 09:07:47;;;;;;;25.15;15.35;;;14.00;51.90;;;;;;5038991;28;20021;-64
2021/04/28 09:10:22;;;;;;;19.40;14.82;;;14.20;51.00;;;;;;5030918;28;20037;-62
2021/04/28 09:13:05;;;;;;;25.27;15.50;;;14.20;50.90;;;;;;5009496;28;20026;-63
2021/04/28 09:15:37;;;;;;;24.42;15.73;;;14.10;51.00;;;;;;5032324;28;20021;-63
2021/04/28 09:18:08;;;;;;;19.40;14.63;;;14.00;51.30;;;;;;5009078;28;20168;-64
2021/04/28 09:20:39;;;;;;;22.95;15.43;;;14.10;51.00;;;;;;5030085;28;20573;-63
2021/04/28 09:23:05;;;;;;;18.27;14.38;;;14.30;51.10;;;;;;5030274;28;20034;-63
2021/04/28 09:25:45;;;;;;;24.10;15.98;;;14.50;50.70;;;;;;5034713;28;20040;-64
2021/04/28 09:28:29;;;;;;;23.35;15.73;;;14.60;50.60;;;;;;5025053;28;20042;-64
2021/04/28 09:31:07;;;;;;;18.85;15.15;;;14.80;50.20;;;;;;5031012;28;20477;-65
2021/04/28 09:33:41;;;;;;;21.90;14.93;;;15.00;49.90;;;;;;5029418;28;20053;-63
2021/04/28 09:36:12;;;;;;;19.88;14.55;;;15.00;49.90;;;;;;5019626;28;20049;-64
2021/04/28 09:38:55;;;;;;;23.17;14.93;;;15.00;50.10;;;;;;5027581;28;20033;-64
2021/04/28 09:41:46;;;;;;;22.10;14.57;;;15.10;50.30;;;;;;5027723;28;20041;-64
2021/04/28 09:44:18;;;;;;;19.70;15.27;;;15.20;49.60;;;;;;5011816;28;20030;-63
2021/04/28 09:47:15;;;;;;;22.17;14.98;;;15.40;49.30;;;;;;5020040;28;20035;-62
2021/04/28 09:50:08;;;;;;;23.45;15.52;;;15.40;49.00;;;;;;5013472;28;20053;-64
2021/04/28 09:52:33;;;;;;;26.52;16.25;;;15.50;49.60;;;;;;5024492;28;20072;-64
2021/04/28 09:55:02;;;;;;;23.75;16.83;;;15.40;49.10;;;;;;5031118;28;20057;-64
2021/04/28 09:57:45;;;;;;;20.27;15.52;;;15.40;49.50;;;;;;5032008;28;20029;-63
2021/04/28 10:00:14;;;;;;;20.50;14.77;;;15.60;49.40;;;;;;5026690;28;20129;-62
2021/04/28 10:02:41;;;;;;;20.30;15.63;;;15.80;49.30;;;;;;5029753;28;20032;-63
2021/04/28 10:05:45;;;;;;;24.52;17.25;;;15.80;48.10;;;;;;5028516;28;20074;-63
2021/04/28 10:08:20;;;;;;;24.00;15.68;;;15.70;49.00;;;;;;4987793;28;20758;-64
2021/04/28 10:10:48;;;;;;;19.00;15.13;;;15.70;48.10;;;;;;5021856;28;20068;-64
2021/04/28 10:13:15;;;;;;;20.58;14.98;;;15.80;48.60;;;;;;5034874;28;20053;-66
2021/04/28 10:15:41;;;;;;;25.15;18.05;;;15.80;48.30;;;;;;5037217;28;20468;-63
2021/04/28 10:18:08;;;;;;;25.75;15.35;;;16.00;47.60;;;;;;5035131;28;20038;-63
2021/04/28 10:20:36;;;;;;;16.90;14.32;;;16.00;47.40;;;;;;5026088;28;20095;-63
2021/04/28 10:23:06;;;;;;;17.65;14.13;;;16.00;46.30;;;;;;5036987;28;20041;-63
2021/04/28 10:25:32;;;;;;;16.42;13.77;;;16.20;46.10;;;;;;5037947;28;20037;-64
2021/04/28 10:28:00;;;;;;;16.70;13.88;;;16.30;45.80;;;;;;5032942;28;20151;-63
2021/04/28 10:30:26;;;;;;;31.83;17.10;;;16.40;45.80;;;;;;5033250;28;20037;-65
2021/04/28 10:32:55;;;;;;;21.60;15.60;;;16.30;46.10;;;;;;5019485;28;20486;-64
2021/04/28 10:35:22;;;;;;;17.50;14.27;;;16.30;46.60;;;;;;5036220;28;20037;-64
2021/04/28 10:37:51;;;;;;;20.60;14.30;;;16.40;46.40;;;;;;5035450;28;20021;-63
2021/04/28 10:40:22;;;;;;;18.90;16.00;;;16.30;45.40;;;;;;5036977;28;20021;-63
2021/04/28 10:42:49;;;;;;;19.35;14.95;;;16.50;46.00;;;;;;5034748;28;20116;-66
2021/04/28 10:45:18;;;;;;;20.50;16.55;;;16.40;46.20;;;;;;5020183;28;20039;-64
2021/04/28 10:47:46;;;;;;;22.45;16.20;;;16.50;46.20;;;;;;5035872;28;20626;-64
2021/04/28 10:50:37;;;;;;;21.27;15.52;;;16.50;46.40;;;;;;5034852;28;20541;-63
2021/04/28 10:53:07;;;;;;;17.63;13.68;;;16.50;46.10;;;;;;5037042;28;20570;-64
2021/04/28 10:55:45;;;;;;;22.50;17.08;;;16.50;46.10;;;;;;5034204;28;20038;-64
2021/04/28 10:58:26;;;;;;;17.45;14.82;;;16.50;46.10;;;;;;5034994;28;20049;-63
2021/04/28 11:00:58;;;;;;;21.45;16.58;;;16.40;46.20;;;;;;5036089;28;20393;-63
2021/04/28 11:03:49;;;;;;;19.67;15.98;;;16.40;46.90;;;;;;5035950;28;20160;-63
2021/04/28 11:09:08;;;;;;;17.55;12.93;;;16.40;46.50;;;;;;5035203;28;20489;-64
2021/04/28 11:11:38;;;;;;;15.65;13.02;;;16.50;44.90;;;;;;5029026;28;20484;-64
2021/04/28 11:14:20;;;;;;;20.38;13.90;;;16.60;43.80;;;;;;5027999;28;20030;-64
2021/04/28 11:16:51;;;;;;;19.55;14.43;;;16.60;45.00;;;;;;5032764;28;20044;-64
2021/04/28 11:19:33;;;;;;;20.05;13.98;;;16.60;44.70;;;;;;5016913;28;20397;-64
2021/04/28 11:22:18;;;;;;;18.60;14.43;;;16.70;44.10;;;;;;5036428;28;20091;-63
2021/04/28 11:24:59;;;;;;;18.35;13.48;;;16.80;44.10;;;;;;5045405;28;20381;-64
2021/04/28 11:27:53;;;;;;;17.45;14.52;;;16.80;44.50;;;;;;5035137;28;20033;-65
2021/04/28 11:30:18;;;;;;;18.85;15.07;;;16.90;45.00;;;;;;5034582;28;20029;-64
2021/04/28 11:33:10;;;;;;;16.08;13.10;;;17.00;44.70;;;;;;5035248;28;20073;-63
2021/04/28 11:35:42;;;;;;;15.32;12.40;;;17.00;44.20;;;;;;5030421;28;20116;-64
2021/04/28 11:38:13;;;;;;;16.60;12.95;;;17.00;42.70;;;;;;5032309;28;20036;-64
2021/04/28 11:40:51;;;;;;;16.52;12.80;;;17.00;42.60;;;;;;5031001;28;20053;-64
2021/04/28 11:43:21;;;;;;;15.48;11.60;;;16.90;43.00;;;;;;5020820;28;20025;-63
2021/04/28 11:45:47;;;;;;;17.38;12.82;;;17.00;43.30;;;;;;5023040;28;20564;-64
2021/04/28 11:48:21;;;;;;;13.38;11.55;;;17.00;41.30;;;;;;5021748;28;20056;-63
2021/04/28 11:50:59;;;;;;;15.13;11.82;;;17.10;41.20;;;;;;5031061;28;20033;-64
2021/04/28 11:53:25;;;;;;;18.67;13.98;;;17.10;42.00;;;;;;5021977;28;20548;-64
2021/04/28 11:55:52;;;;;;;19.40;13.25;;;17.20;43.60;;;;;;5027392;28;20045;-65
2021/04/28 11:58:26;;;;;;;15.90;11.93;;;17.30;42.80;;;;;;5030660;28;20040;-64
2021/04/28 12:01:13;;;;;;;12.55;10.48;;;17.30;40.30;;;;;;5032770;28;20458;-63
2021/04/28 12:03:51;;;;;;;14.70;11.38;;;17.20;40.00;;;;;;5035908;28;20028;-63
2021/04/28 12:06:30;;;;;;;15.80;11.73;;;17.20;40.70;;;;;;5031912;28;20493;-65
2021/04/28 12:09:11;;;;;;;13.52;10.40;;;17.20;40.20;;;;;;5032953;28;20025;-63
2021/04/28 12:11:39;;;;;;;13.27;10.52;;;17.20;40.00;;;;;;5034384;28;20033;-63
2021/04/28 12:14:05;;;;;;;12.45;10.02;;;17.40;39.90;;;;;;5030844;28;20452;-62
2021/04/28 12:16:31;;;;;;;10.55;9.45;;;17.40;38.80;;;;;;5016898;28;20107;-64
2021/04/28 12:19:10;;;;;;;39.70;26.02;;;17.40;38.80;;;;;;5042076;28;20033;-63
2021/04/28 12:21:36;;;;;;;16.23;10.52;;;17.40;38.40;;;;;;5029348;28;20057;-64
2021/04/28 12:24:02;;;;;;;14.52;10.90;;;17.60;38.80;;;;;;5043594;28;20049;-64
2021/04/28 12:26:28;;;;;;;25.08;11.40;;;17.80;39.20;;;;;;5028649;28;20041;-63
2021/04/28 12:28:54;;;;;;;17.60;11.18;;;18.00;38.80;;;;;;5020878;28;20041;-63
2021/04/28 12:31:46;;;;;;;20.67;14.95;;;18.10;38.70;;;;;;5034177;28;20033;-64
2021/04/28 12:34:17;;;;;;;15.98;12.82;;;18.20;39.10;;;;;;5035575;28;20124;-63
2021/04/28 12:36:43;;;;;;;14.13;10.98;;;18.10;39.00;;;;;;5038634;28;20031;-63
2021/04/28 12:39:09;;;;;;;81.22;21.15;;;18.20;39.20;;;;;;5028298;28;20797;-63
2021/04/28 12:41:34;;;;;;;24.00;14.15;;;18.20;38.60;;;;;;5050687;28;20061;-64
2021/04/28 12:44:00;;;;;;;15.13;12.32;;;18.20;39.80;;;;;;5037666;28;20100;-63
2021/04/28 12:46:29;;;;;;;13.85;12.38;;;18.40;39.80;;;;;;5027633;28;20045;-61
2021/04/28 12:49:00;;;;;;;16.10;12.00;;;18.50;39.50;;;;;;5036322;28;20029;-63